MMVA/VSA METAR and TAF weather

Enter ICAO airport designator
Station Type Date Time Source
MMVA METAR 2019/10/15 02:43 UTC NOAA

MMVA 150243Z 00000KT 7SM SCT060 26/25 A2992 RMK SLP129 52020 954 8/010


Station Type Date Time Source
MMVA Decoded METAR 2019/10/15 02:43 UTC NOAA

Villahermosa , Mexico (MMVA) 18-00N 092-49W
Oct 14, 2019 - 10:43 PM EDT / 2019.10.15 0243 UTC
Wind: Calm:0
Visibility: 7 mile(s):0
Sky conditions: partly cloudy
Temperature: 78 F (26 C)
Dew Point: 77 F (25 C)
Relative Humidity: 94%
Pressure (altimeter): 29.92 in. Hg (1013 hPa)
Pressure tendency: 0.06 inches (2.0 hPa) higher than three hours ago
ob: MMVA 150243Z 00000KT 7SM SCT060 26/25 A2992 RMK SLP129 52020 954 8/010
cycle: 2

Station Type Date Time Source
MMVA TAF 2019/10/15 06:49 UTC NOAA

TAF MMVA 150442Z 1506/1606 00000KT 4SM HZ OVC060
BECMG 1508/1509 3SM BR
TEMPO 1510/1514 2SM DZ BR OVC010
FM151400 03010KT P6SM SCT020 BKN080
TEMPO 1521/1601 4SM TSRA BKN020CB
FM160100 17005KT P5SM SCT020 BKN250

Example: see airport list